createdAt,value
2023-02-05T15:55:26.113Z,112.50
2023-02-05T15:58:01.037Z,112.00
2023-02-05T16:00:32.473Z,120.00
2023-02-05T16:03:02.905Z,110.00
2023-02-05T16:05:32.283Z,110.70
2023-02-05T16:08:03.172Z,122.90
2023-02-05T16:10:35.149Z,115.30
2023-02-05T16:13:05.995Z,135.90
2023-02-05T16:15:48.501Z,143.30
2023-02-05T16:18:35.199Z,156.00
2023-02-05T16:21:24.173Z,209.70
2023-02-05T16:24:00.479Z,155.80
2023-02-05T16:26:49.907Z,77.40
2023-02-05T16:29:39.067Z,59.90
2023-02-05T16:32:44.519Z,50.50
2023-02-05T16:35:26.521Z,70.30
2023-02-05T16:37:55.534Z,101.90
2023-02-05T16:40:39.176Z,103.80
2023-02-05T16:43:26.722Z,87.10
2023-02-05T16:46:25.811Z,84.10
2023-02-05T16:48:58.384Z,72.50
2023-02-05T16:51:37.333Z,67.00
2023-02-05T16:54:13.568Z,110.50
2023-02-05T16:57:04.043Z,124.20
2023-02-05T16:59:54.724Z,303.70
2023-02-05T17:02:36.934Z,330.90
2023-02-05T17:05:24.103Z,299.10
2023-02-05T17:07:57.670Z,146.50
2023-02-05T17:10:29.311Z,79.00
2023-02-05T17:13:02.300Z,69.80
2023-02-05T17:15:37.654Z,56.50
2023-02-05T17:18:25.016Z,59.80
2023-02-05T17:21:28.832Z,62.70
2023-02-05T17:24:00.765Z,117.40
2023-02-05T17:26:33.327Z,125.70
2023-02-05T17:29:06.550Z,104.50
2023-02-05T17:34:07.902Z,86.40
2023-02-05T17:36:36.202Z,92.50
2023-02-05T17:39:04.509Z,99.60
2023-02-05T17:41:56.121Z,72.70
2023-02-05T17:44:24.612Z,59.10
2023-02-05T17:46:54.501Z,53.70
2023-02-05T17:49:23.059Z,55.50
2023-02-05T17:51:51.673Z,65.10
2023-02-05T17:54:23.220Z,77.40
2023-02-05T17:56:55.071Z,78.30
2023-02-05T17:59:26.271Z,60.10
2023-02-05T18:01:55.045Z,51.30
2023-02-05T18:04:23.943Z,60.80
2023-02-05T18:06:52.364Z,60.70
2023-02-05T18:09:20.668Z,56.10
2023-02-05T18:11:48.938Z,72.80
2023-02-05T18:14:17.457Z,90.20
2023-02-05T18:16:46.100Z,92.10
2023-02-05T18:19:14.624Z,63.80
2023-02-05T18:21:42.896Z,64.30
2023-02-05T18:24:10.943Z,65.90
2023-02-05T18:26:39.050Z,64.40
2023-02-05T18:29:07.281Z,88.90
2023-02-05T18:31:36.292Z,87.90
2023-02-05T18:34:04.563Z,117.70
2023-02-05T18:36:32.825Z,150.70
2023-02-05T18:39:01.324Z,187.60
2023-02-05T18:41:29.418Z,272.00
2023-02-05T18:43:58.852Z,322.00
2023-02-05T18:46:27.149Z,230.60
2023-02-05T18:48:55.772Z,224.70
2023-02-05T18:51:24.216Z,231.20
2023-02-05T18:53:52.813Z,231.90
2023-02-05T18:56:24.182Z,271.20
2023-02-05T18:58:56.725Z,291.40
2023-02-05T19:01:26.206Z,293.50
2023-02-05T19:03:55.011Z,161.40
2023-02-05T19:06:23.694Z,100.90
2023-02-05T19:08:52.079Z,118.50
2023-02-05T19:11:24.486Z,140.20
2023-02-05T19:13:58.238Z,132.60
2023-02-05T19:16:28.081Z,107.90
2023-02-05T19:18:56.754Z,97.80
2023-02-05T19:21:30.803Z,95.40
2023-02-05T19:24:05.746Z,171.40
2023-02-05T19:26:37.076Z,141.10
2023-02-05T19:29:13.520Z,745.50
2023-02-05T19:31:42.835Z,325.40
2023-02-05T19:34:12.241Z,225.90
2023-02-05T19:36:40.555Z,226.20
2023-02-05T19:39:11.649Z,173.70
2023-02-05T19:41:40.779Z,167.00
2023-02-05T19:44:09.449Z,165.80
2023-02-05T19:46:44.362Z,190.10
2023-02-05T19:49:18.290Z,203.80
2023-02-05T19:51:48.560Z,183.80
2023-02-05T19:54:20.040Z,180.70
2023-02-05T19:56:49.938Z,163.50
2023-02-05T19:59:19.042Z,230.10
2023-02-05T20:01:47.763Z,226.70
2023-02-05T20:04:24.922Z,176.20
2023-02-05T20:06:59.091Z,220.10
2023-02-05T20:09:28.112Z,232.60
2023-02-05T20:11:56.802Z,248.30
2023-02-05T20:14:25.192Z,206.80
2023-02-05T20:16:53.761Z,162.50
2023-02-05T20:19:22.193Z,148.20
2023-02-05T20:21:50.477Z,171.40
2023-02-05T20:24:18.771Z,204.60
2023-02-05T20:26:50.590Z,207.10
2023-02-05T20:29:37.474Z,188.40
2023-02-05T20:32:06.579Z,168.90
2023-02-05T20:34:36.392Z,156.10
2023-02-05T20:37:07.520Z,154.80
2023-02-05T20:39:39.979Z,162.20
2023-02-05T20:42:10.802Z,165.20
2023-02-05T20:44:39.204Z,180.40
2023-02-05T20:47:10.770Z,178.60
2023-02-05T20:49:41.267Z,160.40
2023-02-05T20:52:10.184Z,153.70
2023-02-05T20:54:38.700Z,146.20
2023-02-05T20:57:08.012Z,139.50
2023-02-05T20:59:37.451Z,144.50
2023-02-05T21:02:06.055Z,130.60
2023-02-05T21:04:35.977Z,145.80
2023-02-05T21:07:04.169Z,182.30
2023-02-05T21:09:32.422Z,188.10
2023-02-05T21:12:00.584Z,205.30
2023-02-05T21:14:28.799Z,229.40
2023-02-05T21:16:57.484Z,224.70
2023-02-05T21:19:26.595Z,229.30
2023-02-05T21:21:54.862Z,455.50
2023-02-05T21:24:23.150Z,390.70
2023-02-05T21:26:51.417Z,291.50
2023-02-05T21:29:21.021Z,338.30
2023-02-05T21:31:53.402Z,291.00
2023-02-05T21:34:25.136Z,270.20
2023-02-05T21:36:55.174Z,243.00
2023-02-05T21:39:23.841Z,235.10
2023-02-05T21:41:53.613Z,327.60
2023-02-05T21:44:22.596Z,291.60
2023-02-05T21:46:52.723Z,227.00
2023-02-05T21:49:20.955Z,244.20
2023-02-05T21:51:50.701Z,212.90
2023-02-05T21:54:25.319Z,230.10
2023-02-05T21:56:56.018Z,305.90
2023-02-05T21:59:26.060Z,279.30
2023-02-05T22:01:54.622Z,427.90
2023-02-05T22:04:24.450Z,397.30
2023-02-05T22:06:53.547Z,492.60
2023-02-05T22:09:23.409Z,306.40
2023-02-05T22:11:53.253Z,219.70
2023-02-05T22:14:21.651Z,215.80
2023-02-05T22:16:50.502Z,178.60
2023-02-05T22:19:19.144Z,176.80
2023-02-05T22:21:47.893Z,157.00
2023-02-05T22:24:19.372Z,182.70
2023-02-05T22:26:47.950Z,184.10
2023-02-05T22:29:19.571Z,235.60
2023-02-05T22:31:53.169Z,202.80
2023-02-05T22:34:21.839Z,197.90
2023-02-05T22:36:50.510Z,312.50
2023-02-05T22:39:19.022Z,506.10
2023-02-05T22:41:47.163Z,475.60
2023-02-05T22:44:18.532Z,414.20
2023-02-05T22:46:47.097Z,302.20
2023-02-05T22:49:15.661Z,286.30
2023-02-05T22:51:45.531Z,217.80
2023-02-05T22:54:14.966Z,222.70
2023-02-05T22:56:44.008Z,197.20
2023-02-05T22:59:13.033Z,195.10
2023-02-05T23:01:41.290Z,208.50
2023-02-05T23:04:10.164Z,222.90
2023-02-05T23:06:41.546Z,196.60
2023-02-05T23:09:13.446Z,188.90
2023-02-05T23:11:42.180Z,153.20
2023-02-05T23:14:12.246Z,145.80
2023-02-05T23:16:43.433Z,141.20
2023-02-05T23:19:16.452Z,140.60
2023-02-05T23:21:45.602Z,154.70
2023-02-05T23:24:14.717Z,151.20
2023-02-05T23:26:46.974Z,164.00
2023-02-05T23:29:17.297Z,165.60
2023-02-05T23:31:46.789Z,237.10
2023-02-05T23:34:15.871Z,298.10
2023-02-05T23:36:44.930Z,267.60
2023-02-05T23:39:13.471Z,232.90
2023-02-05T23:41:41.945Z,225.40
2023-02-05T23:44:11.847Z,216.80
2023-02-05T23:46:42.125Z,206.80
2023-02-05T23:49:12.573Z,230.00
2023-02-05T23:51:40.777Z,209.50
2023-02-05T23:54:11.573Z,189.70
2023-02-05T23:56:40.741Z,208.70
2023-02-05T23:59:11.328Z,186.30
